ENBN/BNN METAR and TAF weather

Enter ICAO airport designator
Station Type Date Time Source
ENBN METAR 2018/04/20 08:50 UTC NOAA

ENBN 200850Z 21013KT 9999 -SHRA FEW004 SCT006 BKN012 07/07 Q1013


Station Type Date Time Source
ENBN Decoded METAR 2018/04/20 08:50 UTC NOAA

Bronnoysund / Bronnoy, Norway (ENBN) 65-28N 012-13E 9M
Apr 20, 2018 - 04:50 AM EDT / 2018.04.20 0850 UTC
Wind: from the SSW (210 degrees) at 15 MPH (13 KT):0
Visibility: greater than 7 mile(s):0
Sky conditions: mostly cloudy
Weather: light rain showers
Temperature: 44 F (7 C)
Dew Point: 44 F (7 C)
Relative Humidity: 100%
Pressure (altimeter): 29.91 in. Hg (1013 hPa)
ob: ENBN 200850Z 21013KT 9999 -SHRA FEW004 SCT006 BKN012 07/07 Q1013
cycle: 9

Station Type Date Time Source
ENBN TAF 2011/03/27 18:12 UTC NOAA

TAF TAF ENBN 261700Z 2618/2718 CNL


Example: see airport list